sensor_id;sensor_type;location;lat;lon;timestamp;P1;durP1;ratioP1;P2;durP2;ratioP2
64686;SDS011;51113;53.646;-113.674;2023-05-14T00:02:05;9.13;;;2.33;;
64686;SDS011;51113;53.646;-113.674;2023-05-14T00:04:34;5.53;;;2.15;;
64686;SDS011;51113;53.646;-113.674;2023-05-14T00:07:02;8.50;;;1.90;;
64686;SDS011;51113;53.646;-113.674;2023-05-14T00:09:31;8.07;;;2.30;;
64686;SDS011;51113;53.646;-113.674;2023-05-14T00:12:00;8.15;;;2.20;;
64686;SDS011;51113;53.646;-113.674;2023-05-14T00:14:29;8.43;;;2.30;;
64686;SDS011;51113;53.646;-113.674;2023-05-14T00:16:57;9.80;;;2.40;;
64686;SDS011;51113;53.646;-113.674;2023-05-14T00:19:26;7.97;;;2.60;;
64686;SDS011;51113;53.646;-113.674;2023-05-14T00:21:55;10.13;;;2.53;;
64686;SDS011;51113;53.646;-113.674;2023-05-14T00:24:24;11.38;;;2.45;;
64686;SDS011;51113;53.646;-113.674;2023-05-14T00:26:53;16.05;;;2.90;;
64686;SDS011;51113;53.646;-113.674;2023-05-14T00:29:21;9.23;;;2.42;;
64686;SDS011;51113;53.646;-113.674;2023-05-14T00:31:50;6.97;;;2.50;;
64686;SDS011;51113;53.646;-113.674;2023-05-14T00:34:19;6.72;;;2.45;;
64686;SDS011;51113;53.646;-113.674;2023-05-14T00:36:49;6.22;;;2.50;;
64686;SDS011;51113;53.646;-113.674;2023-05-14T00:39:18;7.20;;;2.50;;
64686;SDS011;51113;53.646;-113.674;2023-05-14T00:41:47;7.85;;;2.33;;
64686;SDS011;51113;53.646;-113.674;2023-05-14T00:44:15;11.77;;;3.10;;
64686;SDS011;51113;53.646;-113.674;2023-05-14T00:46:44;8.38;;;2.65;;
64686;SDS011;51113;53.646;-113.674;2023-05-14T00:49:12;5.63;;;3.03;;
64686;SDS011;51113;53.646;-113.674;2023-05-14T00:51:41;4.57;;;2.60;;
64686;SDS011;51113;53.646;-113.674;2023-05-14T00:56:46;4.97;;;2.63;;
64686;SDS011;51113;53.646;-113.674;2023-05-14T00:59:15;6.28;;;2.70;;
64686;SDS011;51113;53.646;-113.674;2023-05-14T01:01:43;8.30;;;2.72;;
64686;SDS011;51113;53.646;-113.674;2023-05-14T01:04:12;7.05;;;3.03;;
64686;SDS011;51113;53.646;-113.674;2023-05-14T01:09:35;10.00;;;2.88;;
64686;SDS011;51113;53.646;-113.674;2023-05-14T01:12:37;11.60;;;2.90;;
64686;SDS011;51113;53.646;-113.674;2023-05-14T01:15:21;10.93;;;2.90;;
64686;SDS011;51113;53.646;-113.674;2023-05-14T01:17:55;5.97;;;3.10;;
64686;SDS011;51113;53.646;-113.674;2023-05-14T01:20:31;10.50;;;3.00;;
64686;SDS011;51113;53.646;-113.674;2023-05-14T01:22:59;6.80;;;2.70;;
64686;SDS011;51113;53.646;-113.674;2023-05-14T01:25:31;9.90;;;2.97;;
64686;SDS011;51113;53.646;-113.674;2023-05-14T01:30:56;5.13;;;3.00;;
64686;SDS011;51113;53.646;-113.674;2023-05-14T01:33:30;7.15;;;3.17;;
64686;SDS011;51113;53.646;-113.674;2023-05-14T01:36:02;13.98;;;3.33;;
64686;SDS011;51113;53.646;-113.674;2023-05-14T01:38:32;10.10;;;3.38;;
64686;SDS011;51113;53.646;-113.674;2023-05-14T01:41:02;11.52;;;3.05;;
64686;SDS011;51113;53.646;-113.674;2023-05-14T01:43:31;12.77;;;3.38;;
64686;SDS011;51113;53.646;-113.674;2023-05-14T01:46:02;11.40;;;3.35;;
64686;SDS011;51113;53.646;-113.674;2023-05-14T01:48:31;8.73;;;3.35;;
64686;SDS011;51113;53.646;-113.674;2023-05-14T01:51:00;7.25;;;3.20;;
64686;SDS011;51113;53.646;-113.674;2023-05-14T01:53:29;7.65;;;3.47;;
64686;SDS011;51113;53.646;-113.674;2023-05-14T01:55:57;10.05;;;3.38;;
64686;SDS011;51113;53.646;-113.674;2023-05-14T01:58:26;10.25;;;3.22;;
64686;SDS011;51113;53.646;-113.674;2023-05-14T02:00:55;9.98;;;3.00;;
64686;SDS011;51113;53.646;-113.674;2023-05-14T02:03:24;9.30;;;3.05;;
64686;SDS011;51113;53.646;-113.674;2023-05-14T02:05:53;8.85;;;2.90;;
64686;SDS011;51113;53.646;-113.674;2023-05-14T02:08:21;6.88;;;3.25;;
64686;SDS011;51113;53.646;-113.674;2023-05-14T02:10:50;8.27;;;3.45;;
64686;SDS011;51113;53.646;-113.674;2023-05-14T02:13:18;6.40;;;3.45;;
64686;SDS011;51113;53.646;-113.674;2023-05-14T02:15:48;6.05;;;3.30;;
64686;SDS011;51113;53.646;-113.674;2023-05-14T02:18:16;9.30;;;3.45;;
64686;SDS011;51113;53.646;-113.674;2023-05-14T02:20:45;5.88;;;3.63;;
64686;SDS011;51113;53.646;-113.674;2023-05-14T02:23:14;14.63;;;3.53;;
64686;SDS011;51113;53.646;-113.674;2023-05-14T02:25:42;9.98;;;3.45;;
64686;SDS011;51113;53.646;-113.674;2023-05-14T02:28:11;9.82;;;3.50;;
64686;SDS011;51113;53.646;-113.674;2023-05-14T02:30:40;10.90;;;3.40;;
64686;SDS011;51113;53.646;-113.674;2023-05-14T02:33:09;5.32;;;3.75;;
64686;SDS011;51113;53.646;-113.674;2023-05-14T02:35:38;8.73;;;3.85;;
64686;SDS011;51113;53.646;-113.674;2023-05-14T02:38:07;10.07;;;4.13;;
64686;SDS011;51113;53.646;-113.674;2023-05-14T02:40:36;9.35;;;4.13;;
64686;SDS011;51113;53.646;-113.674;2023-05-14T02:43:05;13.25;;;4.10;;
64686;SDS011;51113;53.646;-113.674;2023-05-14T02:45:33;12.38;;;4.50;;
64686;SDS011;51113;53.646;-113.674;2023-05-14T02:48:02;11.20;;;4.13;;
64686;SDS011;51113;53.646;-113.674;2023-05-14T02:50:31;10.07;;;4.18;;
64686;SDS011;51113;53.646;-113.674;2023-05-14T02:53:00;12.38;;;4.13;;
64686;SDS011;51113;53.646;-113.674;2023-05-14T02:55:28;15.18;;;4.50;;
64686;SDS011;51113;53.646;-113.674;2023-05-14T02:57:57;8.63;;;4.72;;
64686;SDS011;51113;53.646;-113.674;2023-05-14T03:00:26;10.45;;;5.20;;
64686;SDS011;51113;53.646;-113.674;2023-05-14T03:02:55;13.88;;;6.07;;
64686;SDS011;51113;53.646;-113.674;2023-05-14T03:05:24;11.32;;;5.57;;
64686;SDS011;51113;53.646;-113.674;2023-05-14T03:07:52;14.90;;;6.05;;
64686;SDS011;51113;53.646;-113.674;2023-05-14T03:10:21;9.07;;;5.47;;
64686;SDS011;51113;53.646;-113.674;2023-05-14T03:12:50;13.30;;;5.63;;
64686;SDS011;51113;53.646;-113.674;2023-05-14T03:15:20;11.68;;;5.65;;
64686;SDS011;51113;53.646;-113.674;2023-05-14T03:17:49;12.63;;;5.90;;
64686;SDS011;51113;53.646;-113.674;2023-05-14T03:20:17;15.40;;;6.57;;
64686;SDS011;51113;53.646;-113.674;2023-05-14T03:22:46;11.07;;;6.22;;
64686;SDS011;51113;53.646;-113.674;2023-05-14T03:25:15;18.17;;;6.65;;
64686;SDS011;51113;53.646;-113.674;2023-05-14T03:27:44;13.85;;;7.10;;
64686;SDS011;51113;53.646;-113.674;2023-05-14T03:30:12;12.95;;;6.43;;
64686;SDS011;51113;53.646;-113.674;2023-05-14T03:32:42;14.40;;;6.72;;
64686;SDS011;51113;53.646;-113.674;2023-05-14T03:35:11;12.52;;;6.72;;
64686;SDS011;51113;53.646;-113.674;2023-05-14T03:37:41;10.45;;;6.93;;
64686;SDS011;51113;53.646;-113.674;2023-05-14T03:40:09;14.68;;;7.38;;
64686;SDS011;51113;53.646;-113.674;2023-05-14T03:42:38;17.27;;;7.45;;
64686;SDS011;51113;53.646;-113.674;2023-05-14T03:45:06;14.70;;;7.32;;
64686;SDS011;51113;53.646;-113.674;2023-05-14T03:47:35;16.25;;;7.30;;
64686;SDS011;51113;53.646;-113.674;2023-05-14T03:50:04;11.32;;;7.47;;
64686;SDS011;51113;53.646;-113.674;2023-05-14T03:52:34;13.38;;;7.32;;
64686;SDS011;51113;53.646;-113.674;2023-05-14T03:55:03;15.18;;;8.02;;
64686;SDS011;51113;53.646;-113.674;2023-05-14T03:57:31;12.73;;;7.22;;
64686;SDS011;51113;53.646;-113.674;2023-05-14T04:00:00;14.18;;;7.25;;
64686;SDS011;51113;53.646;-113.674;2023-05-14T04:02:29;13.45;;;7.47;;
64686;SDS011;51113;53.646;-113.674;2023-05-14T04:04:58;12.18;;;7.50;;
64686;SDS011;51113;53.646;-113.674;2023-05-14T04:07:27;15.75;;;7.75;;
64686;SDS011;51113;53.646;-113.674;2023-05-14T04:09:55;11.80;;;7.93;;
64686;SDS011;51113;53.646;-113.674;2023-05-14T04:12:23;11.90;;;8.02;;
64686;SDS011;51113;53.646;-113.674;2023-05-14T04:14:53;10.88;;;7.82;;
64686;SDS011;51113;53.646;-113.674;2023-05-14T04:17:24;13.30;;;8.23;;
64686;SDS011;51113;53.646;-113.674;2023-05-14T04:19:52;13.68;;;7.55;;
64686;SDS011;51113;53.646;-113.674;2023-05-14T04:22:21;13.90;;;7.88;;
64686;SDS011;51113;53.646;-113.674;2023-05-14T04:24:50;10.98;;;7.78;;
64686;SDS011;51113;53.646;-113.674;2023-05-14T04:27:19;15.10;;;7.18;;
64686;SDS011;51113;53.646;-113.674;2023-05-14T04:29:48;13.85;;;7.47;;
64686;SDS011;51113;53.646;-113.674;2023-05-14T04:32:17;14.35;;;7.68;;
64686;SDS011;51113;53.646;-113.674;2023-05-14T04:34:46;18.80;;;7.30;;
64686;SDS011;51113;53.646;-113.674;2023-05-14T04:37:15;12.95;;;7.00;;
64686;SDS011;51113;53.646;-113.674;2023-05-14T04:39:43;13.57;;;7.30;;
64686;SDS011;51113;53.646;-113.674;2023-05-14T04:42:12;9.93;;;7.03;;
64686;SDS011;51113;53.646;-113.674;2023-05-14T04:44:40;13.38;;;6.97;;
64686;SDS011;51113;53.646;-113.674;2023-05-14T04:47:09;11.32;;;7.60;;
64686;SDS011;51113;53.646;-113.674;2023-05-14T04:49:38;15.50;;;7.03;;
64686;SDS011;51113;53.646;-113.674;2023-05-14T04:52:07;8.85;;;6.93;;
64686;SDS011;51113;53.646;-113.674;2023-05-14T04:54:35;10.25;;;6.75;;
64686;SDS011;51113;53.646;-113.674;2023-05-14T04:57:04;15.23;;;6.28;;
64686;SDS011;51113;53.646;-113.674;2023-05-14T04:59:33;16.42;;;7.10;;
64686;SDS011;51113;53.646;-113.674;2023-05-14T05:02:02;10.95;;;6.55;;
64686;SDS011;51113;53.646;-113.674;2023-05-14T05:04:31;9.57;;;6.60;;
64686;SDS011;51113;53.646;-113.674;2023-05-14T05:07:00;8.93;;;6.63;;
64686;SDS011;51113;53.646;-113.674;2023-05-14T05:09:28;10.38;;;6.55;;
64686;SDS011;51113;53.646;-113.674;2023-05-14T05:11:57;9.23;;;6.28;;
64686;SDS011;51113;53.646;-113.674;2023-05-14T05:14:28;10.63;;;6.20;;
64686;SDS011;51113;53.646;-113.674;2023-05-14T05:16:56;10.63;;;6.15;;
64686;SDS011;51113;53.646;-113.674;2023-05-14T05:19:25;12.60;;;6.13;;
64686;SDS011;51113;53.646;-113.674;2023-05-14T05:22:09;11.95;;;6.18;;
64686;SDS011;51113;53.646;-113.674;2023-05-14T05:24:38;8.95;;;5.80;;
64686;SDS011;51113;53.646;-113.674;2023-05-14T05:27:06;11.20;;;6.20;;
64686;SDS011;51113;53.646;-113.674;2023-05-14T05:29:35;15.00;;;6.00;;
64686;SDS011;51113;53.646;-113.674;2023-05-14T05:32:03;14.38;;;6.00;;
64686;SDS011;51113;53.646;-113.674;2023-05-14T05:34:32;11.93;;;5.63;;
64686;SDS011;51113;53.646;-113.674;2023-05-14T05:37:01;10.95;;;5.55;;
64686;SDS011;51113;53.646;-113.674;2023-05-14T05:39:29;10.30;;;5.13;;
64686;SDS011;51113;53.646;-113.674;2023-05-14T05:42:01;18.63;;;6.03;;
64686;SDS011;51113;53.646;-113.674;2023-05-14T05:44:30;14.20;;;5.22;;
64686;SDS011;51113;53.646;-113.674;2023-05-14T05:46:59;10.75;;;5.13;;
64686;SDS011;51113;53.646;-113.674;2023-05-14T05:49:28;10.68;;;5.15;;
64686;SDS011;51113;53.646;-113.674;2023-05-14T05:51:56;8.73;;;5.22;;
64686;SDS011;51113;53.646;-113.674;2023-05-14T05:54:26;8.57;;;4.70;;
64686;SDS011;51113;53.646;-113.674;2023-05-14T05:56:54;7.88;;;4.88;;
64686;SDS011;51113;53.646;-113.674;2023-05-14T05:59:23;11.68;;;5.25;;
64686;SDS011;51113;53.646;-113.674;2023-05-14T06:01:55;10.25;;;4.72;;
64686;SDS011;51113;53.646;-113.674;2023-05-14T06:04:23;9.05;;;5.45;;
64686;SDS011;51113;53.646;-113.674;2023-05-14T06:06:52;9.73;;;4.97;;
64686;SDS011;51113;53.646;-113.674;2023-05-14T06:09:21;11.48;;;5.07;;
64686;SDS011;51113;53.646;-113.674;2023-05-14T06:11:49;11.23;;;5.38;;
64686;SDS011;51113;53.646;-113.674;2023-05-14T06:14:18;12.13;;;5.03;;
64686;SDS011;51113;53.646;-113.674;2023-05-14T06:16:46;12.95;;;4.80;;
64686;SDS011;51113;53.646;-113.674;2023-05-14T06:19:15;7.93;;;4.80;;
64686;SDS011;51113;53.646;-113.674;2023-05-14T06:21:44;9.85;;;4.97;;
64686;SDS011;51113;53.646;-113.674;2023-05-14T06:24:12;6.38;;;4.43;;
64686;SDS011;51113;53.646;-113.674;2023-05-14T06:26:41;11.18;;;4.72;;
64686;SDS011;51113;53.646;-113.674;2023-05-14T06:29:09;11.98;;;4.70;;
64686;SDS011;51113;53.646;-113.674;2023-05-14T06:31:38;10.23;;;4.65;;
64686;SDS011;51113;53.646;-113.674;2023-05-14T06:34:06;8.75;;;4.38;;
64686;SDS011;51113;53.646;-113.674;2023-05-14T06:36:35;7.32;;;4.50;;
64686;SDS011;51113;53.646;-113.674;2023-05-14T06:39:04;9.75;;;4.45;;
64686;SDS011;51113;53.646;-113.674;2023-05-14T06:41:33;13.25;;;4.20;;
64686;SDS011;51113;53.646;-113.674;2023-05-14T06:44:01;7.85;;;4.32;;
64686;SDS011;51113;53.646;-113.674;2023-05-14T06:46:30;11.70;;;4.32;;
64686;SDS011;51113;53.646;-113.674;2023-05-14T06:48:58;5.63;;;4.28;;
64686;SDS011;51113;53.646;-113.674;2023-05-14T06:51:27;8.63;;;4.40;;
64686;SDS011;51113;53.646;-113.674;2023-05-14T06:53:55;13.07;;;4.40;;
64686;SDS011;51113;53.646;-113.674;2023-05-14T06:56:24;7.28;;;3.90;;
64686;SDS011;51113;53.646;-113.674;2023-05-14T06:58:52;10.55;;;4.18;;
64686;SDS011;51113;53.646;-113.674;2023-05-14T07:01:21;10.48;;;3.83;;
64686;SDS011;51113;53.646;-113.674;2023-05-14T07:03:50;10.30;;;4.20;;
64686;SDS011;51113;53.646;-113.674;2023-05-14T07:06:19;10.18;;;4.30;;
64686;SDS011;51113;53.646;-113.674;2023-05-14T07:08:48;9.38;;;4.38;;
64686;SDS011;51113;53.646;-113.674;2023-05-14T07:11:16;7.97;;;4.25;;
64686;SDS011;51113;53.646;-113.674;2023-05-14T07:13:45;9.15;;;4.05;;
64686;SDS011;51113;53.646;-113.674;2023-05-14T07:16:14;13.43;;;4.82;;
64686;SDS011;51113;53.646;-113.674;2023-05-14T07:18:43;9.55;;;4.30;;
64686;SDS011;51113;53.646;-113.674;2023-05-14T07:21:11;9.07;;;3.85;;
64686;SDS011;51113;53.646;-113.674;2023-05-14T07:23:40;8.48;;;4.15;;
64686;SDS011;51113;53.646;-113.674;2023-05-14T07:26:09;12.43;;;4.65;;
64686;SDS011;51113;53.646;-113.674;2023-05-14T07:28:37;8.48;;;4.20;;
64686;SDS011;51113;53.646;-113.674;2023-05-14T07:31:06;14.05;;;4.22;;
64686;SDS011;51113;53.646;-113.674;2023-05-14T07:33:35;10.52;;;4.70;;
64686;SDS011;51113;53.646;-113.674;2023-05-14T07:36:05;8.70;;;4.32;;
64686;SDS011;51113;53.646;-113.674;2023-05-14T07:38:35;12.38;;;4.28;;
64686;SDS011;51113;53.646;-113.674;2023-05-14T07:41:04;8.93;;;4.30;;
64686;SDS011;51113;53.646;-113.674;2023-05-14T07:43:32;13.60;;;4.22;;
64686;SDS011;51113;53.646;-113.674;2023-05-14T07:46:01;7.93;;;4.07;;
64686;SDS011;51113;53.646;-113.674;2023-05-14T07:48:29;10.38;;;4.60;;
64686;SDS011;51113;53.646;-113.674;2023-05-14T07:50:58;7.13;;;4.28;;
64686;SDS011;51113;53.646;-113.674;2023-05-14T07:53:27;10.10;;;4.65;;
64686;SDS011;51113;53.646;-113.674;2023-05-14T07:55:56;12.07;;;4.60;;
64686;SDS011;51113;53.646;-113.674;2023-05-14T07:58:26;7.70;;;4.68;;
64686;SDS011;51113;53.646;-113.674;2023-05-14T08:00:55;8.13;;;4.78;;
64686;SDS011;51113;53.646;-113.674;2023-05-14T08:03:25;10.98;;;4.57;;
64686;SDS011;51113;53.646;-113.674;2023-05-14T08:05:53;8.63;;;4.57;;
64686;SDS011;51113;53.646;-113.674;2023-05-14T08:08:24;8.65;;;4.72;;
64686;SDS011;51113;53.646;-113.674;2023-05-14T08:10:54;9.68;;;4.80;;
64686;SDS011;51113;53.646;-113.674;2023-05-14T08:13:22;11.00;;;4.43;;
64686;SDS011;51113;53.646;-113.674;2023-05-14T08:15:50;15.70;;;4.88;;
64686;SDS011;51113;53.646;-113.674;2023-05-14T08:18:19;10.32;;;4.50;;
64686;SDS011;51113;53.646;-113.674;2023-05-14T08:20:48;10.70;;;4.53;;
64686;SDS011;51113;53.646;-113.674;2023-05-14T08:23:16;9.00;;;4.50;;
64686;SDS011;51113;53.646;-113.674;2023-05-14T08:25:45;12.63;;;4.63;;
64686;SDS011;51113;53.646;-113.674;2023-05-14T08:28:14;8.63;;;4.60;;
64686;SDS011;51113;53.646;-113.674;2023-05-14T08:30:42;8.25;;;4.90;;
64686;SDS011;51113;53.646;-113.674;2023-05-14T08:33:11;7.65;;;4.13;;
64686;SDS011;51113;53.646;-113.674;2023-05-14T08:35:40;11.82;;;4.47;;
64686;SDS011;51113;53.646;-113.674;2023-05-14T08:38:09;6.93;;;4.63;;
64686;SDS011;51113;53.646;-113.674;2023-05-14T08:40:38;7.28;;;4.63;;
64686;SDS011;51113;53.646;-113.674;2023-05-14T08:43:07;11.00;;;5.05;;
64686;SDS011;51113;53.646;-113.674;2023-05-14T08:45:38;6.82;;;4.60;;
64686;SDS011;51113;53.646;-113.674;2023-05-14T08:48:08;17.35;;;5.05;;
64686;SDS011;51113;53.646;-113.674;2023-05-14T08:50:41;7.78;;;4.72;;
64686;SDS011;51113;53.646;-113.674;2023-05-14T08:53:11;9.65;;;5.43;;
64686;SDS011;51113;53.646;-113.674;2023-05-14T08:55:40;9.23;;;5.53;;
64686;SDS011;51113;53.646;-113.674;2023-05-14T08:58:09;13.07;;;5.00;;
64686;SDS011;51113;53.646;-113.674;2023-05-14T09:00:38;10.70;;;5.47;;
64686;SDS011;51113;53.646;-113.674;2023-05-14T09:03:09;9.40;;;4.95;;
64686;SDS011;51113;53.646;-113.674;2023-05-14T09:05:39;8.80;;;5.32;;
64686;SDS011;51113;53.646;-113.674;2023-05-14T09:08:08;8.40;;;5.30;;
64686;SDS011;51113;53.646;-113.674;2023-05-14T09:10:37;15.18;;;5.55;;
64686;SDS011;51113;53.646;-113.674;2023-05-14T09:13:07;10.27;;;5.50;;
64686;SDS011;51113;53.646;-113.674;2023-05-14T09:15:36;8.10;;;4.80;;
64686;SDS011;51113;53.646;-113.674;2023-05-14T09:18:08;14.05;;;5.70;;
64686;SDS011;51113;53.646;-113.674;2023-05-14T09:20:38;8.02;;;5.45;;
64686;SDS011;51113;53.646;-113.674;2023-05-14T09:23:07;13.65;;;5.88;;
64686;SDS011;51113;53.646;-113.674;2023-05-14T09:25:35;12.30;;;5.55;;
64686;SDS011;51113;53.646;-113.674;2023-05-14T09:28:10;9.80;;;5.32;;
64686;SDS011;51113;53.646;-113.674;2023-05-14T09:30:38;16.38;;;5.35;;
64686;SDS011;51113;53.646;-113.674;2023-05-14T09:33:07;8.80;;;5.28;;
64686;SDS011;51113;53.646;-113.674;2023-05-14T09:35:36;10.70;;;5.75;;
64686;SDS011;51113;53.646;-113.674;2023-05-14T09:38:08;8.07;;;5.35;;
64686;SDS011;51113;53.646;-113.674;2023-05-14T09:40:36;9.20;;;5.30;;
64686;SDS011;51113;53.646;-113.674;2023-05-14T09:43:05;9.10;;;5.70;;
64686;SDS011;51113;53.646;-113.674;2023-05-14T09:45:33;8.32;;;4.88;;
64686;SDS011;51113;53.646;-113.674;2023-05-14T09:48:02;10.40;;;4.90;;
64686;SDS011;51113;53.646;-113.674;2023-05-14T09:50:30;9.98;;;5.57;;
64686;SDS011;51113;53.646;-113.674;2023-05-14T09:52:59;13.20;;;5.65;;
64686;SDS011;51113;53.646;-113.674;2023-05-14T09:55:28;8.20;;;5.45;;
64686;SDS011;51113;53.646;-113.674;2023-05-14T09:57:58;10.02;;;5.28;;
64686;SDS011;51113;53.646;-113.674;2023-05-14T10:00:26;10.73;;;5.50;;
64686;SDS011;51113;53.646;-113.674;2023-05-14T10:02:56;9.55;;;5.63;;
64686;SDS011;51113;53.646;-113.674;2023-05-14T10:05:26;6.03;;;4.70;;
64686;SDS011;51113;53.646;-113.674;2023-05-14T10:07:56;15.70;;;5.07;;
64686;SDS011;51113;53.646;-113.674;2023-05-14T10:13:00;9.57;;;5.15;;
64686;SDS011;51113;53.646;-113.674;2023-05-14T10:18:35;9.60;;;5.13;;
64686;SDS011;51113;53.646;-113.674;2023-05-14T10:21:13;7.97;;;5.18;;
64686;SDS011;51113;53.646;-113.674;2023-05-14T10:23:43;13.13;;;5.50;;
64686;SDS011;51113;53.646;-113.674;2023-05-14T10:26:12;8.70;;;5.50;;
64686;SDS011;51113;53.646;-113.674;2023-05-14T10:28:42;7.32;;;4.75;;
64686;SDS011;51113;53.646;-113.674;2023-05-14T10:31:11;9.52;;;5.32;;
64686;SDS011;51113;53.646;-113.674;2023-05-14T10:33:46;9.82;;;5.50;;
64686;SDS011;51113;53.646;-113.674;2023-05-14T10:36:17;10.27;;;5.07;;
64686;SDS011;51113;53.646;-113.674;2023-05-14T10:38:45;8.73;;;4.90;;
64686;SDS011;51113;53.646;-113.674;2023-05-14T10:41:22;11.82;;;5.13;;
64686;SDS011;51113;53.646;-113.674;2023-05-14T10:43:51;11.13;;;5.30;;
64686;SDS011;51113;53.646;-113.674;2023-05-14T10:46:20;11.30;;;5.30;;
64686;SDS011;51113;53.646;-113.674;2023-05-14T10:48:49;9.25;;;5.50;;
64686;SDS011;51113;53.646;-113.674;2023-05-14T10:51:18;8.40;;;5.53;;
64686;SDS011;51113;53.646;-113.674;2023-05-14T10:53:49;10.07;;;5.72;;
64686;SDS011;51113;53.646;-113.674;2023-05-14T10:56:19;8.85;;;5.50;;
64686;SDS011;51113;53.646;-113.674;2023-05-14T10:58:49;14.35;;;5.90;;
64686;SDS011;51113;53.646;-113.674;2023-05-14T11:01:17;11.40;;;5.50;;
64686;SDS011;51113;53.646;-113.674;2023-05-14T11:03:52;10.60;;;6.03;;
64686;SDS011;51113;53.646;-113.674;2023-05-14T11:06:22;13.23;;;6.18;;
64686;SDS011;51113;53.646;-113.674;2023-05-14T11:08:54;9.07;;;5.75;;
64686;SDS011;51113;53.646;-113.674;2023-05-14T11:11:23;12.73;;;6.57;;
64686;SDS011;51113;53.646;-113.674;2023-05-14T11:13:53;13.88;;;6.15;;
64686;SDS011;51113;53.646;-113.674;2023-05-14T11:16:22;13.43;;;6.50;;
64686;SDS011;51113;53.646;-113.674;2023-05-14T11:19:02;9.98;;;6.28;;
64686;SDS011;51113;53.646;-113.674;2023-05-14T11:21:32;10.00;;;5.72;;
64686;SDS011;51113;53.646;-113.674;2023-05-14T11:24:01;10.30;;;6.18;;
64686;SDS011;51113;53.646;-113.674;2023-05-14T11:26:31;8.88;;;5.97;;
64686;SDS011;51113;53.646;-113.674;2023-05-14T11:29:01;8.95;;;6.18;;
64686;SDS011;51113;53.646;-113.674;2023-05-14T11:31:29;15.82;;;6.70;;
64686;SDS011;51113;53.646;-113.674;2023-05-14T11:33:58;10.80;;;6.78;;
64686;SDS011;51113;53.646;-113.674;2023-05-14T11:36:28;10.48;;;6.32;;
64686;SDS011;51113;53.646;-113.674;2023-05-14T11:38:56;8.45;;;6.00;;
64686;SDS011;51113;53.646;-113.674;2023-05-14T11:41:25;15.95;;;6.65;;
64686;SDS011;51113;53.646;-113.674;2023-05-14T11:43:54;12.15;;;6.68;;
64686;SDS011;51113;53.646;-113.674;2023-05-14T11:46:23;8.18;;;6.28;;
64686;SDS011;51113;53.646;-113.674;2023-05-14T11:48:52;8.15;;;6.25;;
64686;SDS011;51113;53.646;-113.674;2023-05-14T11:51:22;10.40;;;6.70;;
64686;SDS011;51113;53.646;-113.674;2023-05-14T11:53:50;13.55;;;6.78;;
64686;SDS011;51113;53.646;-113.674;2023-05-14T11:56:21;10.18;;;5.88;;
64686;SDS011;51113;53.646;-113.674;2023-05-14T11:58:54;14.38;;;6.85;;
64686;SDS011;51113;53.646;-113.674;2023-05-14T12:01:25;9.23;;;6.30;;
64686;SDS011;51113;53.646;-113.674;2023-05-14T12:03:55;11.93;;;6.28;;
64686;SDS011;51113;53.646;-113.674;2023-05-14T12:06:29;9.10;;;6.63;;
64686;SDS011;51113;53.646;-113.674;2023-05-14T12:09:00;13.48;;;6.88;;
64686;SDS011;51113;53.646;-113.674;2023-05-14T12:11:34;12.30;;;6.28;;
64686;SDS011;51113;53.646;-113.674;2023-05-14T12:14:10;10.13;;;6.50;;
64686;SDS011;51113;53.646;-113.674;2023-05-14T12:16:44;14.15;;;6.43;;
64686;SDS011;51113;53.646;-113.674;2023-05-14T12:19:14;10.50;;;6.88;;
64686;SDS011;51113;53.646;-113.674;2023-05-14T12:21:46;12.90;;;6.55;;
64686;SDS011;51113;53.646;-113.674;2023-05-14T12:24:17;11.73;;;6.10;;
64686;SDS011;51113;53.646;-113.674;2023-05-14T12:26:47;14.25;;;6.80;;
64686;SDS011;51113;53.646;-113.674;2023-05-14T12:29:16;14.90;;;6.28;;
64686;SDS011;51113;53.646;-113.674;2023-05-14T12:31:45;8.77;;;6.65;;
64686;SDS011;51113;53.646;-113.674;2023-05-14T12:34:15;13.70;;;6.50;;
64686;SDS011;51113;53.646;-113.674;2023-05-14T12:36:44;10.32;;;6.47;;
64686;SDS011;51113;53.646;-113.674;2023-05-14T12:39:13;9.82;;;6.40;;
64686;SDS011;51113;53.646;-113.674;2023-05-14T12:41:41;14.43;;;6.47;;
64686;SDS011;51113;53.646;-113.674;2023-05-14T12:44:10;10.45;;;6.53;;
64686;SDS011;51113;53.646;-113.674;2023-05-14T12:46:39;10.15;;;6.70;;
64686;SDS011;51113;53.646;-113.674;2023-05-14T12:49:07;9.57;;;6.35;;
64686;SDS011;51113;53.646;-113.674;2023-05-14T12:51:36;23.02;;;6.43;;
64686;SDS011;51113;53.646;-113.674;2023-05-14T12:54:04;9.32;;;6.30;;
64686;SDS011;51113;53.646;-113.674;2023-05-14T12:56:33;13.00;;;6.28;;
64686;SDS011;51113;53.646;-113.674;2023-05-14T12:59:04;15.32;;;6.70;;
64686;SDS011;51113;53.646;-113.674;2023-05-14T13:01:33;10.15;;;6.38;;
64686;SDS011;51113;53.646;-113.674;2023-05-14T13:04:02;9.10;;;6.22;;
64686;SDS011;51113;53.646;-113.674;2023-05-14T13:06:32;9.68;;;6.05;;
64686;SDS011;51113;53.646;-113.674;2023-05-14T13:09:00;9.82;;;6.70;;
64686;SDS011;51113;53.646;-113.674;2023-05-14T13:11:30;10.15;;;6.50;;
64686;SDS011;51113;53.646;-113.674;2023-05-14T13:13:59;9.00;;;5.85;;
64686;SDS011;51113;53.646;-113.674;2023-05-14T13:16:28;8.10;;;6.05;;
64686;SDS011;51113;53.646;-113.674;2023-05-14T13:18:58;9.50;;;6.20;;
64686;SDS011;51113;53.646;-113.674;2023-05-14T13:21:27;10.57;;;6.10;;
64686;SDS011;51113;53.646;-113.674;2023-05-14T13:23:56;11.60;;;6.30;;
64686;SDS011;51113;53.646;-113.674;2023-05-14T13:26:25;12.00;;;6.30;;
64686;SDS011;51113;53.646;-113.674;2023-05-14T13:28:55;9.00;;;6.05;;
64686;SDS011;51113;53.646;-113.674;2023-05-14T13:31:23;11.48;;;5.82;;
64686;SDS011;51113;53.646;-113.674;2023-05-14T13:33:51;9.85;;;5.32;;
64686;SDS011;51113;53.646;-113.674;2023-05-14T13:36:20;8.38;;;5.47;;
64686;SDS011;51113;53.646;-113.674;2023-05-14T13:38:48;11.98;;;5.82;;
64686;SDS011;51113;53.646;-113.674;2023-05-14T13:41:17;11.63;;;5.70;;
64686;SDS011;51113;53.646;-113.674;2023-05-14T13:43:45;12.85;;;6.15;;
64686;SDS011;51113;53.646;-113.674;2023-05-14T13:46:14;8.57;;;5.55;;
64686;SDS011;51113;53.646;-113.674;2023-05-14T13:48:43;9.32;;;5.75;;
64686;SDS011;51113;53.646;-113.674;2023-05-14T13:51:11;9.15;;;5.38;;
64686;SDS011;51113;53.646;-113.674;2023-05-14T13:53:40;9.80;;;5.32;;
64686;SDS011;51113;53.646;-113.674;2023-05-14T13:56:09;12.88;;;5.55;;
64686;SDS011;51113;53.646;-113.674;2023-05-14T13:58:38;10.90;;;5.63;;
64686;SDS011;51113;53.646;-113.674;2023-05-14T14:01:07;13.60;;;5.65;;
64686;SDS011;51113;53.646;-113.674;2023-05-14T14:03:35;7.72;;;4.60;;
64686;SDS011;51113;53.646;-113.674;2023-05-14T14:06:04;8.63;;;4.57;;
64686;SDS011;51113;53.646;-113.674;2023-05-14T14:08:33;8.75;;;4.78;;
64686;SDS011;51113;53.646;-113.674;2023-05-14T14:11:02;8.38;;;4.82;;
64686;SDS011;51113;53.646;-113.674;2023-05-14T14:13:31;13.27;;;5.00;;
64686;SDS011;51113;53.646;-113.674;2023-05-14T14:15:59;8.18;;;4.80;;
64686;SDS011;51113;53.646;-113.674;2023-05-14T14:18:29;6.68;;;4.75;;
64686;SDS011;51113;53.646;-113.674;2023-05-14T14:20:58;12.55;;;5.50;;
64686;SDS011;51113;53.646;-113.674;2023-05-14T14:23:27;9.43;;;4.80;;
64686;SDS011;51113;53.646;-113.674;2023-05-14T14:25:56;7.07;;;4.93;;
64686;SDS011;51113;53.646;-113.674;2023-05-14T14:28:24;9.65;;;5.00;;